Flight Track Log - Related Links

Times and Time Zones

All times are in EDT time to prevent confusion due to time zone crossing. See the N600TR flight status page for this flight to view local times or setup timezone preferences in your user account.

Time Position Orientation Groundspeed Altitude Reporting Facility
EDT Latitude Longitude Course Direction KTS MPH feet Rate Location/Type
Tue 04:02:18 PM 33.6333 -84.3500 163° South 201 231 2,900  Level Atlanta TRACON
Tue 04:03:12 PM 33.6000 -84.2833 121° Southeast 257 296 5,000 2,211 Climbing Atlanta TRACON
Tue 04:04:12 PM 33.5500 -84.2333 140° Southeast 277 319 7,100 2,115 Climbing Atlanta TRACON
Tue 04:05:48 PM 33.4414 -84.2131 171° South 278 320 10,500 2,115 Climbing Atlanta Center
Tue 04:06:48 PM 33.3683 -84.2106 178° South 271 312 12,600 1,450 Climbing Atlanta Center
Tue 04:07:00 PM 33.1514 -84.2308 163° South  Level FlightAware Approximate
Tue 04:07:48 PM 33.2828 -84.2028 176° South 289 333 13,400  Level Atlanta Center
Tue 04:08:48 PM 33.1867 -84.1678 163° South 319 367 14,200 1,150 Climbing Atlanta Center
Tue 04:09:48 PM 33.0992 -84.0958 145° Southeast 359 413 15,700 1,650 Climbing Atlanta Center
Tue 04:10:48 PM 33.0178 -84.0439 152° Southeast 369 425 17,500 1,700 Climbing Atlanta Center
Tue 04:11:48 PM 32.9239 -83.9869 153° Southeast 369 425 19,100 1,550 Climbing Atlanta Center
Tue 04:12:48 PM 32.8319 -83.9300 153° Southeast 374 430 20,600 1,250 Climbing Atlanta Center
Tue 04:13:48 PM 32.7358 -83.8683 152° Southeast 379 436 21,600 1,100 Climbing Atlanta Center
Tue 04:14:48 PM 32.6356 -83.8069 153° Southeast 392 451 22,800 1,150 Climbing Atlanta Center
Tue 04:15:48 PM 32.5539 -83.7086 135° Southeast 402 463 23,900 900 Climbing Atlanta Center
Tue 04:16:48 PM 32.4783 -83.6006 130° Southeast 408 470 24,600 750 Climbing Atlanta Center
Tue 04:17:48 PM 32.3986 -83.4928 131° Southeast 427 491 25,400 850 Climbing Atlanta Center
Tue 04:18:48 PM 32.3106 -83.3875 135° Southeast 440 506 26,300 824 Climbing Atlanta Center
Tue 04:19:30 PM 32.2306 -83.3053 139° Southeast 442 509 26,800 706 Climbing Jacksonville Center
Tue 04:20:30 PM 32.1347 -83.2092 140° Southeast 461 531 27,500 700 Climbing Jacksonville Center
Tue 04:21:30 PM 32.0347 -83.1106 140° Southeast 466 536 28,200 300 Climbing Jacksonville Center
Tue 04:22:30 PM 31.9472 -82.9978 132° Southeast 466 536 28,100 -100 Descending Jacksonville Center
Tue 04:23:30 PM 31.8722 -82.8756 126° Southeast 461 531 28,000 -50 Descending Jacksonville Center
Tue 04:24:30 PM 31.8011 -82.7556 125° Southeast 461 531 28,000  Level Jacksonville Center
Tue 04:25:30 PM 31.7300 -82.6311 124° Southeast 456 525 28,000  Level Jacksonville Center
Tue 04:26:30 PM 31.6586 -82.5094 125° Southeast 450 518 28,000  Level Jacksonville Center
Tue 04:27:30 PM 31.5872 -82.3878 125° Southeast 450 518 28,000  Level Jacksonville Center
Tue 04:28:30 PM 31.5200 -82.2833 127° Southeast 445 512 28,000  Level Jacksonville Center
Tue 04:29:30 PM 31.4503 -82.1669 125° Southeast 445 512 28,000  Level Jacksonville Center
Tue 04:30:30 PM 31.3478 -82.1019 152° Southeast 413 475 28,000  Level Jacksonville Center
Tue 04:31:30 PM 31.2347 -82.0544 160° South 413 475 28,000  Level Jacksonville Center
Tue 04:32:30 PM 31.1217 -82.0019 158° South 428 493 28,000  Level Jacksonville Center
Tue 04:33:30 PM 31.0064 -81.9400 155° Southeast 441 507 28,000  Level Jacksonville Center
Tue 04:34:30 PM 30.8992 -81.8733 152° Southeast 446 513 28,000  Level Jacksonville Center
Tue 04:35:30 PM 30.7881 -81.7994 150° Southeast 446 513 28,000  Level Jacksonville Center
Tue 04:36:30 PM 30.6789 -81.7381 154° Southeast 451 519 28,000  Level Jacksonville Center
Tue 04:37:30 PM 30.5533 -81.7106 169° South 446 513 28,000  Level Jacksonville Center
Tue 04:38:30 PM 30.4278 -81.6808 168° South 454 522 28,000  Level Jacksonville Center
Tue 04:39:30 PM 30.2878 -81.6536 170° South 460 529 28,000  Level Jacksonville Center
Tue 04:40:30 PM 30.1642 -81.6169 166° South 460 529 28,000  Level Jacksonville Center
Tue 04:41:30 PM 30.0569 -81.5464 150° Southeast 445 512 28,000  Level Jacksonville Center
Tue 04:42:30 PM 29.9475 -81.4736 150° Southeast 450 518 28,000 -250 Level Jacksonville Center
Tue 04:43:30 PM 29.8361 -81.4008 150° Southeast 456 525 27,500 -700 Descending Jacksonville Center
Tue 04:44:30 PM 29.7225 -81.3286 151° Southeast 462 532 26,600 -950 Descending Jacksonville Center
Tue 04:45:30 PM 29.6089 -81.2683 155° Southeast 462 532 25,600 -1,000 Descending Jacksonville Center
Tue 04:46:30 PM 29.4936 -81.2175 159° South 457 526 24,600 -1,450 Descending Jacksonville Center
Tue 04:47:30 PM 29.3906 -81.1669 157° South 451 519 22,700 -2,450 Descending Jacksonville Center
Tue 04:48:30 PM 29.2833 -81.1189 159° South 436 502 19,700 -3,000 Descending Jacksonville Center
Tue 04:49:30 PM 29.1706 -81.1019 173° South 410 472 16,700 -2,231 Descending Jacksonville Center
Tue 04:50:31 PM 29.0619 -81.0967 178° South 405 466 15,200 -950 Descending Jacksonville Center
Tue 04:51:30 PM 28.9572 -81.0844 174° South 395 455 14,800 -1,563 Descending Jacksonville Center
Tue 04:52:30 PM 28.8550 -81.0744 175° South 383 441 12,100 -2,440 Descending Jacksonville Center
Tue 04:53:01 PM 28.8000 -81.0667 173° South 360 414 11,100 -1,271 Descending Orlando TRACON
Tue 04:53:55 PM 28.7167 -81.0667 180° South 302 348 10,300 -1,043 Descending Orlando TRACON
Tue 04:54:56 PM 28.6333 -81.0500 170° South 275 316 9,100 -1,537 Descending Orlando TRACON
Tue 04:55:56 PM 28.5667 -81.0333 168° South 272 313 7,200 -1,600 Descending Orlando TRACON
Tue 04:56:56 PM 28.4833 -81.0167 170° South 266 306 5,900 -1,000 Descending Orlando TRACON
Tue 04:57:56 PM 28.4167 -81.0000 168° South 267 307 5,200 -450 Descending Orlando TRACON
Tue 04:58:56 PM 28.3500 -80.9833 168° South 257 296 5,000 -100 Descending Orlando TRACON
Tue 04:59:56 PM 28.2833 -80.9500 156° South 252 290 5,000 -550 Level Orlando TRACON
Tue 05:00:56 PM 28.2167 -80.9000 147° Southeast 242 278 3,900 -1,100 Descending Orlando TRACON
Tue 05:01:56 PM 28.1667 -80.8667 150° Southeast 235 270 2,800 -900 Descending Orlando TRACON
Tue 05:02:56 PM 28.1167 -80.8333 150° Southeast 220 253 2,100 -450 Descending Orlando TRACON
Tue 05:03:56 PM 28.1000 -80.7833 111° Southeast 161 185 1,900 -500 Descending Orlando TRACON
Tue 05:04:56 PM 28.1000 -80.7333 90° East 160 184 1,100 -694 Descending Orlando TRACON
Tue 05:05:57 PM 28.1000 -80.6833 90° East 127 146 500 -590 Descending Orlando TRACON
Tue 05:07:00 PM 28.1028 -80.6453 115° Southeast  Level Estimated
Tue 05:14:00 PM 28.1028 -80.6453 115° Southeast  Level Estimated
Tue 05:15:00 PM 28.1028 -80.6453 115° Southeast  Level Estimated

Login

Don't have an account? Register now (free) for customized features, flight alerts, and more!